Time;durP1;ratioP1;P1;durP2;ratioP2;P2;SDS_P1;SDS_P2;PMS_P1;PMS_P2;Temp;Humidity;BMP_temperature;BMP_pressure;BME280_temperature;BME280_humidity;BME280_pressure;Samples;Min_cycle;Max_cycle;Signal;HPM_P1;HPM_P2
2023/01/05 00:01:53;;;;;;;0.70;0.70;;;;;;;6.84;98.61;99828.59;5093218;28;20044;-67
2023/01/05 00:04:23;;;;;;;0.63;0.63;;;;;;;6.88;99.10;99822.75;5093792;28;20042;-67
2023/01/05 00:06:52;;;;;;;0.85;0.85;;;;;;;6.92;98.89;99827.03;5094004;28;20061;-67
2023/01/05 00:09:21;;;;;;;1.08;0.98;;;;;;;6.95;98.77;99832.16;5093631;28;20051;-67
2023/01/05 00:22:33;;;;;;;1.38;1.27;;;;;;;7.02;98.94;99798.44;5094047;28;20393;-67
2023/01/05 00:25:06;;;;;;;4.28;2.25;;;;;;;7.01;98.70;99797.56;5093745;28;20498;-67
2023/01/05 00:27:42;;;;;;;1.00;0.98;;;;;;;6.95;99.15;99786.50;5093398;28;20055;-68
2023/01/05 00:30:12;;;;;;;3.28;2.45;;;;;;;6.99;99.32;99778.09;5093860;28;20051;-68
2023/01/05 00:32:43;;;;;;;0.93;0.93;;;;;;;6.99;98.88;99773.00;5093431;28;20093;-68
2023/01/05 00:35:15;;;;;;;1.67;1.58;;;;;;;6.99;99.59;99770.47;5092774;28;20386;-68
2023/01/05 00:37:45;;;;;;;2.10;1.77;;;;;;;7.01;99.29;99776.41;5093428;28;20094;-68
2023/01/05 00:40:15;;;;;;;;;;;;;;;7.04;99.16;99781.56;5092607;28;20043;-68
2023/01/05 00:42:43;;;;;;;;;;;;;;;7.06;99.27;99759.59;5093968;28;19920;-67
2023/01/05 00:45:14;;;;;;;0.60;0.60;;;;;;;7.06;98.93;99779.88;5093558;28;19958;-67
2023/01/05 00:47:44;;;;;;;1.73;1.38;;;;;;;7.09;99.72;99772.31;5093340;28;20044;-67
2023/01/05 00:50:17;;;;;;;2.33;2.10;;;;;;;7.10;99.58;99767.25;5093563;28;20076;-67
2023/01/05 00:52:46;;;;;;;0.50;0.50;;;;;;;7.13;99.61;99756.31;5093600;28;20119;-67
2023/01/05 00:55:15;;;;;;;0.90;0.90;;;;;;;7.14;99.59;99743.66;5093179;28;20079;-67
2023/01/05 00:57:45;;;;;;;2.03;1.38;;;;;;;7.14;99.71;99740.25;5093766;28;20044;-66
2023/01/05 01:00:17;;;;;;;1.70;1.60;;;;;;;7.14;99.69;99732.63;5092008;28;20067;-67
2023/01/05 01:02:46;;;;;;;1.33;1.25;;;;;;;7.16;99.78;99738.59;5091918;28;20040;-67
2023/01/05 01:05:17;;;;;;;0.80;0.80;;;;;;;7.18;100.00;99739.44;5093381;28;20074;-66
2023/01/05 01:07:47;;;;;;;10.30;2.20;;;;;;;7.16;99.29;99730.97;5091967;28;20050;-67
2023/01/05 01:10:16;;;;;;;1.55;1.45;;;;;;;7.16;99.20;99725.91;5092781;28;20044;-66
2023/01/05 01:12:45;;;;;;;0.80;0.80;;;;;;;7.14;99.93;99732.63;5094987;28;20097;-66
2023/01/05 01:15:14;;;;;;;2.05;1.85;;;;;;;7.16;100.00;99733.50;5096718;28;20047;-66
2023/01/05 01:17:42;;;;;;;1.53;1.30;;;;;;;7.15;100.00;99726.75;5097005;28;20390;-66
2023/01/05 01:20:11;;;;;;;2.07;1.33;;;;;;;7.13;99.59;99736.00;5097282;28;20139;-66
2023/01/05 01:22:42;;;;;;;2.13;1.77;;;;;;;7.14;100.00;99737.72;5096880;28;20168;-66
2023/01/05 01:25:10;;;;;;;4.38;1.02;;;;;;;7.13;99.99;99720.78;5096899;28;20135;-67
2023/01/05 01:27:39;;;;;;;3.27;2.27;;;;;;;7.14;99.91;99722.50;5095304;28;20174;-66
2023/01/05 01:30:10;;;;;;;2.50;2.20;;;;;;;7.13;100.00;99714.03;5095363;28;20044;-66
2023/01/05 01:32:38;;;;;;;0.80;0.80;;;;;;;7.16;100.00;99721.69;5096507;28;20130;-67
2023/01/05 01:35:08;;;;;;;2.28;1.88;;;;;;;7.16;100.00;99723.34;5096316;28;20494;-67
2023/01/05 01:37:37;;;;;;;1.85;1.75;;;;;;;7.17;100.00;99713.25;5095734;28;20074;-67
2023/01/05 01:40:09;;;;;;;2.25;2.05;;;;;;;7.17;100.00;99703.09;5096306;28;20044;-67
2023/01/05 01:42:40;;;;;;;0.70;0.70;;;;;;;7.18;100.00;99714.06;5095022;28;20101;-67
2023/01/05 01:45:18;;;;;;;0.50;0.50;;;;;;;7.15;100.00;99708.97;5096413;28;20044;-67
2023/01/05 01:47:53;;;;;;;2.35;2.15;;;;;;;7.19;100.00;99720.88;5094988;28;20051;-67
2023/01/05 01:50:27;;;;;;;1.27;0.90;;;;;;;7.17;99.90;99713.25;5095242;28;20485;-67
2023/01/05 01:53:00;;;;;;;1.13;1.10;;;;;;;7.15;100.00;99709.81;5096069;28;20081;-67
2023/01/05 01:55:31;;;;;;;3.85;2.53;;;;;;;7.16;100.00;99710.66;5094822;28;20044;-67
2023/01/05 01:58:03;;;;;;;1.48;1.38;;;;;;;7.16;99.93;99697.97;5095071;28;20050;-66
2023/01/05 02:00:32;;;;;;;1.42;1.33;;;;;;;7.14;99.90;99686.97;5095018;28;20075;-66
2023/01/05 02:03:01;;;;;;;1.58;1.48;;;;;;;7.13;100.00;99682.72;5094827;28;20067;-66
2023/01/05 02:05:31;;;;;;;;;;;;;;;7.13;100.00;99690.31;5096529;28;20063;-67
2023/01/05 02:08:00;;;;;;;1.23;1.13;;;;;;;7.12;100.00;99683.56;5095745;28;19930;-67
2023/01/05 02:10:49;;;;;;;0.75;0.75;;;;;;;7.14;100.00;99687.81;5094597;28;20052;-66
2023/01/05 02:13:26;;;;;;;;;;;;;;;7.15;100.00;99683.59;5096131;28;20040;-67
2023/01/05 02:16:12;;;;;;;0.60;0.60;;;;;;;7.18;100.00;99674.31;5095745;28;19923;-67
2023/01/05 02:19:01;;;;;;;0.40;0.40;;;;;;;7.22;100.00;99665.09;5094445;28;20048;-66
2023/01/05 02:21:50;;;;;;;1.17;1.08;;;;;;;7.24;100.00;99653.25;5094678;28;20382;-66
2023/01/05 02:24:43;;;;;;;0.50;0.50;;;;;;;7.28;100.00;99652.44;5093446;28;20036;-66
2023/01/05 02:27:31;;;;;;;0.73;0.73;;;;;;;7.31;100.00;99649.94;5095728;28;20383;-66
2023/01/05 02:30:31;;;;;;;0.70;0.70;;;;;;;7.35;100.00;99639.00;5094211;28;20054;-66
2023/01/05 02:33:14;;;;;;;3.03;2.28;;;;;;;7.38;100.00;99624.66;5066034;28;20036;-67
2023/01/05 02:35:54;;;;;;;1.60;1.50;;;;;;;7.44;100.00;99612.00;5095595;28;20040;-66
2023/01/05 02:38:33;;;;;;;2.00;1.48;;;;;;;7.48;100.00;99612.91;5095446;28;20547;-66
2023/01/05 02:41:11;;;;;;;1.42;1.33;;;;;;;7.49;100.00;99612.06;5095480;28;20474;-66
2023/01/05 02:43:43;;;;;;;0.60;0.60;;;;;;;7.53;100.00;99606.19;5095886;28;20072;-65
2023/01/05 02:46:12;;;;;;;1.17;0.90;;;;;;;7.55;100.00;99593.50;5095375;28;20047;-66
2023/01/05 02:48:43;;;;;;;0.90;0.90;;;;;;;7.55;100.00;99593.50;5093709;28;20070;-66
2023/01/05 02:51:16;;;;;;;1.95;0.90;;;;;;;7.59;100.00;99590.16;5095505;28;20444;-66
2023/01/05 02:53:50;;;;;;;0.85;0.82;;;;;;;7.58;100.00;99581.72;5093789;28;20044;-66
2023/01/05 02:56:25;;;;;;;0.57;0.57;;;;;;;7.60;100.00;99589.31;5095169;28;20482;-66
2023/01/05 02:58:58;;;;;;;0.43;0.43;;;;;;;7.61;100.00;99586.78;5093610;28;20135;-66
2023/01/05 03:01:34;;;;;;;0.93;0.90;;;;;;;7.61;100.00;99573.22;5094175;28;20490;-66
2023/01/05 03:04:08;;;;;;;1.10;1.02;;;;;;;7.59;100.00;99575.78;5094773;28;20051;-66
2023/01/05 03:06:45;;;;;;;1.02;0.95;;;;;;;7.61;100.00;99565.63;5093495;28;20079;-66
2023/01/05 03:09:24;;;;;;;0.40;0.40;;;;;;;7.59;100.00;99563.06;5095139;28;20518;-66
2023/01/05 03:14:46;;;;;;;0.63;0.63;;;;;;;7.52;100.00;99548.63;5093669;28;20090;-65
2023/01/05 03:17:20;;;;;;;0.50;0.50;;;;;;;7.60;100.00;99566.47;5094738;28;20063;-65
2023/01/05 03:19:54;;;;;;;1.35;1.25;;;;;;;7.59;100.00;99565.63;5094598;28;20052;-66
2023/01/05 03:36:06;;;;;;;1.27;0.65;;;;;;;7.51;100.00;99518.97;5092751;28;20044;-66
2023/01/05 03:38:40;;;;;;;0.73;0.70;;;;;;;7.54;100.00;99516.47;5094460;28;20043;-66
2023/01/05 03:41:13;;;;;;;0.75;0.75;;;;;;;7.51;100.00;99521.50;5093229;28;20052;-66
2023/01/05 03:43:43;;;;;;;1.13;1.10;;;;;;;7.50;100.00;99518.97;5092765;28;20505;-67
2023/01/05 03:46:16;;;;;;;0.57;0.57;;;;;;;7.49;100.00;99523.19;5093975;28;20044;-66
2023/01/05 03:48:46;;;;;;;0.85;0.75;;;;;;;7.40;100.00;99495.19;5093307;28;20044;-67
2023/01/05 03:51:19;;;;;;;1.67;1.55;;;;;;;7.52;100.00;99512.22;5093873;28;20044;-67
2023/01/05 03:53:48;;;;;;;0.47;0.47;;;;;;;7.49;100.00;99512.19;5092990;28;20090;-67
2023/01/05 03:56:17;;;;;;;0.73;0.73;;;;;;;7.49;100.00;99512.19;5092677;28;20040;-67
2023/01/05 03:58:46;;;;;;;0.50;0.50;;;;;;;7.50;100.00;99508.81;5094130;28;20043;-67
2023/01/05 04:01:15;;;;;;;0.45;0.45;;;;;;;7.53;100.00;99514.78;5094057;28;20051;-67
2023/01/05 04:03:44;;;;;;;0.63;0.63;;;;;;;7.54;100.00;99526.63;5092629;28;20078;-67
2023/01/05 04:06:13;;;;;;;0.45;0.45;;;;;;;7.58;100.00;99512.28;5092479;28;20075;-67
2023/01/05 04:08:43;;;;;;;0.40;0.40;;;;;;;7.65;100.00;99514.03;5093728;28;20059;-67
2023/01/05 04:11:14;;;;;;;0.50;0.50;;;;;;;7.69;100.00;99511.53;5093733;28;20131;-67
2023/01/05 04:13:50;;;;;;;1.23;1.13;;;;;;;7.73;100.00;99492.06;5094024;28;20122;-67
2023/01/05 04:16:19;;;;;;;1.77;0.70;;;;;;;7.75;100.00;99498.84;5093898;28;20047;-67
2023/01/05 04:18:50;;;;;;;0.30;0.30;;;;;;;7.73;100.00;99509.84;5093809;28;20076;-67
2023/01/05 04:21:22;;;;;;;2.58;1.80;;;;;;;7.72;100.00;99518.31;5093525;28;20101;-67
2023/01/05 04:23:55;;;;;;;1.08;1.05;;;;;;;7.70;100.00;99500.50;5093850;28;20043;-67
2023/01/05 04:26:25;;;;;;;1.08;0.98;;;;;;;7.69;100.00;99521.69;5093545;28;20089;-67
2023/01/05 04:28:54;;;;;;;1.30;1.20;;;;;;;7.66;100.00;99508.94;5075312;28;20048;-67
2023/01/05 04:31:25;;;;;;;1.30;1.05;;;;;;;7.66;100.00;99506.41;5093442;28;20048;-67
2023/01/05 04:33:56;;;;;;;0.30;0.30;;;;;;;7.66;100.00;99500.47;5093775;28;20067;-67
2023/01/05 04:36:27;;;;;;;0.55;0.55;;;;;;;7.69;100.00;99501.38;5093465;28;20044;-67
2023/01/05 04:39:00;;;;;;;0.70;0.70;;;;;;;7.70;100.00;99502.22;5094294;28;20437;-67
2023/01/05 04:41:30;;;;;;;0.30;0.30;;;;;;;7.70;100.00;99497.16;5093595;28;20463;-67
2023/01/05 04:43:59;;;;;;;0.88;0.82;;;;;;;7.72;100.00;99501.41;5092168;28;20127;-67
2023/01/05 04:46:28;;;;;;;1.30;1.27;;;;;;;7.76;100.00;99484.47;5094116;28;20085;-67
2023/01/05 04:48:59;;;;;;;0.73;0.70;;;;;;;7.78;100.00;99492.94;5097849;28;20494;-67
2023/01/05 04:51:27;;;;;;;1.10;1.02;;;;;;;7.78;100.00;99473.47;5096596;28;20450;-67
2023/01/05 04:53:56;;;;;;;0.43;0.43;;;;;;;7.77;100.00;99464.19;5097467;28;20044;-67
2023/01/05 04:56:27;;;;;;;9.82;1.73;;;;;;;7.75;100.00;99481.06;5095984;28;20506;-67
2023/01/05 04:58:56;;;;;;;1.08;0.98;;;;;;;7.68;100.00;99479.34;5096302;28;20040;-66
2023/01/05 05:01:25;;;;;;;0.33;0.33;;;;;;;7.66;100.00;99473.41;5097329;28;20040;-66
2023/01/05 05:03:56;;;;;;;1.52;1.33;;;;;;;7.67;100.00;99477.66;5095898;28;20048;-67
2023/01/05 05:06:26;;;;;;;0.93;0.85;;;;;;;7.66;100.00;99475.94;5096948;28;20040;-67
2023/01/05 05:08:57;;;;;;;0.90;0.90;;;;;;;7.71;100.00;99469.19;5097225;28;20513;-67
2023/01/05 05:11:28;;;;;;;0.50;0.50;;;;;;;7.78;100.00;99455.69;5096891;28;20048;-66
2023/01/05 05:13:57;;;;;;;0.85;0.73;;;;;;;7.78;100.00;99465.88;5095602;28;20048;-67
2023/01/05 05:16:26;;;;;;;0.77;0.77;;;;;;;7.83;100.00;99458.28;5095872;28;20040;-67
2023/01/05 05:18:56;;;;;;;0.50;0.50;;;;;;;7.86;100.00;99464.25;5096863;28;20040;-67
2023/01/05 05:21:27;;;;;;;0.38;0.38;;;;;;;7.89;100.00;99459.16;5096703;28;20287;-67
2023/01/05 05:23:56;;;;;;;0.40;0.40;;;;;;;7.93;100.00;99455.81;5096996;28;20063;-67
2023/01/05 05:26:25;;;;;;;1.03;0.97;;;;;;;7.93;100.00;99455.81;5095628;28;20770;-67
2023/01/05 05:28:57;;;;;;;0.52;0.52;;;;;;;7.87;100.00;99455.75;5096296;28;20048;-67
2023/01/05 05:31:26;;;;;;;1.15;1.05;;;;;;;7.84;100.00;99459.97;5096544;28;20515;-67
2023/01/05 05:33:55;;;;;;;0.67;0.67;;;;;;;7.83;100.00;99459.13;5096676;28;20109;-67
2023/01/05 05:36:24;;;;;;;0.23;0.23;;;;;;;7.76;100.00;99446.38;5096710;28;20059;-67
2023/01/05 05:38:53;;;;;;;0.30;0.30;;;;;;;7.84;100.00;99435.44;5096325;28;20042;-66
2023/01/05 05:41:22;;;;;;;0.60;0.60;;;;;;;7.93;100.00;99445.66;5096263;28;20032;-67
2023/01/05 05:43:51;;;;;;;0.40;0.40;;;;;;;7.98;100.00;99423.66;5096669;28;20039;-67
2023/01/05 05:46:21;;;;;;;0.40;0.40;;;;;;;8.05;100.00;99425.38;5096497;28;20063;-67
2023/01/05 05:48:50;;;;;;;0.40;0.40;;;;;;;8.15;100.00;99420.34;5096341;28;20551;-67
2023/01/05 05:51:19;;;;;;;0.40;0.40;;;;;;;8.23;100.00;99418.69;5096177;28;20050;-67
2023/01/05 05:53:47;;;;;;;0.30;0.30;;;;;;;8.25;100.00;99422.09;5095998;28;20123;-68
2023/01/05 05:56:16;;;;;;;0.30;0.30;;;;;;;8.21;100.00;99426.28;5096012;28;20079;-67
2023/01/05 05:58:45;;;;;;;0.30;0.30;;;;;;;8.21;100.00;99425.44;5096201;28;20436;-67
2023/01/05 06:01:14;;;;;;;0.30;0.30;;;;;;;8.16;100.00;99417.78;5095930;28;20048;-67
2023/01/05 06:03:44;;;;;;;0.53;0.53;;;;;;;8.09;100.00;99416.94;5096161;28;20054;-67
2023/01/05 06:06:13;;;;;;;4.55;2.38;;;;;;;8.06;100.00;99421.97;5096115;28;20044;-67
2023/01/05 06:08:42;;;;;;;0.40;0.40;;;;;;;8.00;100.00;99416.03;5095733;28;20040;-67
2023/01/05 06:11:11;;;;;;;0.50;0.50;;;;;;;8.05;100.00;99419.44;5095707;28;20051;-67
2023/01/05 06:13:40;;;;;;;1.70;1.58;;;;;;;8.07;100.00;99413.53;5095581;28;20827;-66
2023/01/05 06:16:09;;;;;;;7.82;6.13;;;;;;;8.09;100.00;99401.69;5095665;28;20040;-67
2023/01/05 06:18:38;;;;;;;5.30;4.77;;;;;;;8.10;100.00;99408.47;5095857;28;20072;-67
2023/01/05 06:21:09;;;;;;;3.33;2.80;;;;;;;8.03;100.00;99411.81;5095447;28;20570;-67
2023/01/05 06:23:37;;;;;;;2.53;1.58;;;;;;;7.97;100.00;99406.69;5096058;28;20150;-68
2023/01/05 06:26:06;;;;;;;0.50;0.50;;;;;;;7.90;100.00;99402.44;5095619;28;20432;-67
2023/01/05 06:28:35;;;;;;;0.77;0.73;;;;;;;7.92;100.00;99402.44;5095511;28;20125;-67
2023/01/05 06:31:04;;;;;;;0.30;0.30;;;;;;;8.01;100.00;99398.25;5095289;28;20044;-67
2023/01/05 06:33:33;;;;;;;0.30;0.30;;;;;;;8.13;100.00;99383.91;5095265;28;20044;-68
2023/01/05 06:36:02;;;;;;;0.40;0.40;;;;;;;8.33;100.00;99374.66;5095174;28;20105;-67
2023/01/05 06:38:32;;;;;;;0.32;0.32;;;;;;;8.46;100.00;99377.28;5095454;28;20498;-67
2023/01/05 06:41:01;;;;;;;0.22;0.22;;;;;;;8.50;100.00;99367.94;5095229;28;20109;-67
2023/01/05 06:43:30;;;;;;;0.85;0.85;;;;;;;8.47;100.00;99367.97;5094999;28;20127;-67
2023/01/05 06:45:59;;;;;;;0.38;0.38;;;;;;;8.46;100.00;99366.25;5095290;28;20455;-67
2023/01/05 06:48:28;;;;;;;1.03;0.83;;;;;;;8.47;100.00;99365.41;5094934;28;20076;-67
2023/01/05 06:50:57;;;;;;;0.28;0.28;;;;;;;8.49;100.00;99368.81;5095316;28;20338;-68
2023/01/05 06:53:26;;;;;;;0.70;0.70;;;;;;;8.52;100.00;99361.16;5093838;28;20575;-68
2023/01/05 06:55:56;;;;;;;2.00;0.73;;;;;;;8.53;100.00;99358.66;5094815;28;20094;-67
2023/01/05 06:58:25;;;;;;;1.00;0.52;;;;;;;8.52;100.00;99356.09;5095103;28;20051;-67
2023/01/05 07:00:54;;;;;;;0.63;0.63;;;;;;;8.50;100.00;99357.78;5094713;28;20043;-67
2023/01/05 07:03:23;;;;;;;0.30;0.30;;;;;;;8.42;100.00;99346.75;5094983;28;20070;-68
2023/01/05 07:05:52;;;;;;;0.45;0.45;;;;;;;8.46;100.00;99348.44;5094832;28;20044;-67
2023/01/05 07:08:21;;;;;;;0.87;0.87;;;;;;;8.44;100.00;99360.31;5094900;28;20067;-67
2023/01/05 07:10:50;;;;;;;0.30;0.30;;;;;;;8.42;100.00;99351.84;5094093;28;20051;-68
2023/01/05 07:13:20;;;;;;;0.50;0.50;;;;;;;8.42;100.00;99356.94;5094755;28;20059;-68
2023/01/05 07:15:49;;;;;;;1.02;0.93;;;;;;;8.39;100.00;99362.84;5094524;28;20107;-67
2023/01/05 07:18:18;;;;;;;0.40;0.40;;;;;;;8.36;100.00;99359.44;5094702;28;20044;-67
2023/01/05 07:20:47;;;;;;;0.50;0.50;;;;;;;8.33;100.00;99354.34;5094979;28;20040;-67
2023/01/05 07:23:16;;;;;;;0.50;0.50;;;;;;;8.28;100.00;99353.50;5094262;28;20040;-67
2023/01/05 07:25:45;;;;;;;0.60;0.60;;;;;;;8.26;100.00;99350.03;5094532;28;20086;-67
2023/01/05 07:28:14;;;;;;;0.60;0.60;;;;;;;8.24;100.00;99367.84;5094043;28;20521;-67
2023/01/05 07:30:44;;;;;;;0.97;0.90;;;;;;;8.21;100.00;99374.59;5094149;28;20047;-67
2023/01/05 07:33:12;;;;;;;1.13;1.02;;;;;;;8.20;99.99;99375.47;5094439;28;20082;-67
2023/01/05 07:35:41;;;;;;;0.60;0.60;;;;;;;8.17;100.00;99368.66;5094107;28;20040;-67
2023/01/05 07:38:10;;;;;;;1.05;0.95;;;;;;;8.19;100.00;99366.97;5093993;28;20040;-67
2023/01/05 07:40:39;;;;;;;0.55;0.55;;;;;;;8.21;100.00;99379.69;5094029;28;20048;-67
2023/01/05 07:43:07;;;;;;;0.30;0.30;;;;;;;8.20;99.65;99383.94;5093898;28;20513;-67
2023/01/05 07:45:36;;;;;;;0.57;0.57;;;;;;;8.20;99.99;99388.16;5094274;28;20067;-67
2023/01/05 07:48:07;;;;;;;0.80;0.80;;;;;;;8.18;100.00;99392.41;5094137;28;20067;-67
2023/01/05 07:50:36;;;;;;;0.60;0.60;;;;;;;8.17;99.75;99388.16;5094232;28;20039;-67
2023/01/05 07:53:04;;;;;;;0.65;0.65;;;;;;;8.17;99.65;99394.09;5094042;28;20106;-68
2023/01/05 07:55:33;;;;;;;2.50;2.10;;;;;;;8.19;100.00;99396.63;5093834;28;20127;-67
2023/01/05 07:58:02;;;;;;;0.57;0.57;;;;;;;8.18;99.81;99390.72;5106031;28;20043;-67
2023/01/05 08:00:31;;;;;;;0.50;0.50;;;;;;;8.19;99.84;99391.53;5114135;28;20039;-67
2023/01/05 08:02:59;;;;;;;2.63;0.93;;;;;;;8.18;99.38;99394.94;5114139;28;20166;-67
2023/01/05 08:05:33;;;;;;;2.67;1.17;;;;;;;8.21;100.00;99392.38;5114061;28;20118;-67
2023/01/05 08:08:02;;;;;;;1.15;0.60;;;;;;;8.27;99.94;99400.09;5100675;28;20082;-67
2023/01/05 08:10:30;;;;;;;0.80;0.80;;;;;;;8.28;99.70;99402.63;5114408;28;20374;-67
2023/01/05 08:15:40;;;;;;;2.22;1.52;;;;;;;8.30;99.52;99410.28;5113908;28;20067;-67
2023/01/05 08:18:18;;;;;;;0.93;0.93;;;;;;;8.32;100.00;99398.41;5113937;28;20058;-67
2023/01/05 08:20:52;;;;;;;1.65;1.55;;;;;;;8.33;100.00;99420.44;5113868;28;20031;-67
2023/01/05 08:23:22;;;;;;;0.73;0.70;;;;;;;8.37;100.00;99412.84;5118185;28;20075;-67
2023/01/05 08:25:53;;;;;;;0.80;0.75;;;;;;;8.36;100.00;99410.28;5118229;28;20054;-66
2023/01/05 08:28:21;;;;;;;0.73;0.73;;;;;;;8.45;99.95;99421.34;5117933;28;20086;-67
2023/01/05 08:30:50;;;;;;;0.55;0.55;;;;;;;8.48;99.07;99420.50;5118064;28;20044;-67
2023/01/05 08:33:19;;;;;;;0.82;0.80;;;;;;;8.56;98.98;99439.19;5118028;28;20047;-66
2023/01/05 08:35:48;;;;;;;1.27;1.17;;;;;;;8.53;99.01;99440.03;5117918;28;20071;-68
2023/01/05 08:38:21;;;;;;;1.13;1.02;;;;;;;8.52;98.99;99432.38;5118538;28;20047;-68
2023/01/05 08:40:50;;;;;;;0.43;0.43;;;;;;;8.60;99.53;99428.19;5104866;28;20068;-68
2023/01/05 08:43:19;;;;;;;0.82;0.82;;;;;;;8.68;99.16;99426.50;5097745;28;20115;-68
2023/01/05 08:45:49;;;;;;;0.47;0.47;;;;;;;8.76;98.69;99427.34;5097618;28;20042;-67
2023/01/05 08:48:18;;;;;;;0.40;0.40;;;;;;;8.78;98.76;99425.69;5097655;28;20056;-67
2023/01/05 08:50:47;;;;;;;0.50;0.50;;;;;;;8.78;98.34;99418.06;5099572;28;20044;-68
2023/01/05 08:53:16;;;;;;;0.50;0.50;;;;;;;8.86;98.34;99418.91;5097510;28;20055;-68
2023/01/05 08:55:46;;;;;;;0.30;0.30;;;;;;;8.91;98.22;99424.84;5097409;28;20077;-67
2023/01/05 08:58:15;;;;;;;0.68;0.68;;;;;;;8.94;98.22;99414.69;5097698;28;20402;-67
2023/01/05 09:00:43;;;;;;;0.55;0.55;;;;;;;8.96;98.17;99405.34;5097144;28;20090;-67
2023/01/05 09:03:12;;;;;;;1.70;0.90;;;;;;;8.96;98.61;99396.88;5095774;28;20039;-70
2023/01/05 09:05:41;;;;;;;0.93;0.93;;;;;;;8.98;98.66;99393.47;5111565;28;20417;-67
2023/01/05 09:08:10;;;;;;;0.45;0.45;;;;;;;9.07;98.12;99411.28;5102190;28;20402;-67
2023/01/05 09:10:39;;;;;;;0.30;0.30;;;;;;;9.15;98.38;99414.72;5117460;28;20123;-66
2023/01/05 09:13:10;;;;;;;0.77;0.77;;;;;;;9.22;98.24;99425.72;5117554;28;20066;-68
2023/01/05 09:15:39;;;;;;;0.30;0.30;;;;;;;9.31;97.65;99426.59;5117504;27;20051;-66
2023/01/05 09:18:08;;;;;;;0.20;0.20;;;;;;;9.40;97.48;99424.06;5117732;28;20067;-67
2023/01/05 09:20:37;;;;;;;0.40;0.40;;;;;;;9.49;97.47;99407.06;5117374;28;20043;-66
2023/01/05 09:23:07;;;;;;;0.40;0.40;;;;;;;9.55;97.57;99396.88;5117279;28;20276;-67
2023/01/05 09:25:39;;;;;;;0.45;0.45;;;;;;;9.63;97.55;99393.44;5117026;28;20063;-68
2023/01/05 09:28:09;;;;;;;0.20;0.20;;;;;;;9.65;97.06;99384.09;5116804;28;20040;-68
2023/01/05 09:30:38;;;;;;;0.40;0.40;;;;;;;9.67;97.03;99377.28;5116937;28;20523;-67
2023/01/05 09:33:17;;;;;;;0.30;0.30;;;;;;;9.69;97.07;99380.72;5108568;28;20055;-67
2023/01/05 09:35:53;;;;;;;1.05;0.55;;;;;;;9.73;96.60;99390.03;5095043;28;20036;-67
2023/01/05 09:38:22;;;;;;;0.20;0.20;;;;;;;9.72;96.74;99387.47;5098539;28;20036;-68
2023/01/05 09:40:55;;;;;;;0.30;0.30;;;;;;;9.78;95.81;99387.47;5116618;28;20089;-65
2023/01/05 09:43:29;;;;;;;0.63;0.63;;;;;;;9.80;95.40;99373.03;5115986;28;20452;-67
2023/01/05 09:45:59;;;;;;;0.40;0.40;;;;;;;9.84;95.34;99374.72;5116928;28;20047;-66
2023/01/05 09:48:36;;;;;;;0.30;0.30;;;;;;;9.87;94.96;99369.59;5116959;28;20036;-66
2023/01/05 09:51:07;;;;;;;0.40;0.40;;;;;;;9.88;94.25;99363.66;5116844;28;20523;-66
2023/01/05 09:53:37;;;;;;;1.85;1.02;;;;;;;9.89;93.75;99368.75;5116805;28;20055;-66
2023/01/05 09:56:07;;;;;;;0.40;0.40;;;;;;;9.92;93.85;99378.09;5116425;28;20043;-65
2023/01/05 09:58:42;;;;;;;0.22;0.22;;;;;;;9.95;93.21;99373.00;5116714;28;20062;-65
2023/01/05 10:01:15;;;;;;;0.40;0.40;;;;;;;9.99;92.72;99383.16;5116379;28;20042;-66
2023/01/05 10:03:55;;;;;;;0.50;0.50;;;;;;;10.04;92.14;99388.25;5116307;28;20044;-65
2023/01/05 10:06:37;;;;;;;0.37;0.37;;;;;;;10.05;91.32;99400.16;5107420;28;20051;-65
2023/01/05 10:09:08;;;;;;;0.30;0.30;;;;;;;10.04;91.04;99414.59;5106580;28;20051;-67
2023/01/05 10:14:32;;;;;;;0.85;0.63;;;;;;;10.05;89.14;99392.50;5115257;28;20163;-65
2023/01/05 10:17:01;;;;;;;0.30;0.30;;;;;;;10.07;88.94;99378.06;5115902;28;20048;-65
2023/01/05 10:19:53;;;;;;;0.20;0.20;;;;;;;10.12;88.13;99365.31;5115939;28;20059;-65
2023/01/05 10:22:36;;;;;;;0.90;0.90;;;;;;;10.13;87.51;99354.25;5115914;28;20093;-66
2023/01/05 10:25:15;;;;;;;0.40;0.40;;;;;;;10.11;87.42;99369.53;5115867;27;20075;-66
2023/01/05 10:27:49;;;;;;;0.30;0.30;;;;;;;10.11;87.19;99379.72;5114747;28;20058;-65
2023/01/05 10:30:35;;;;;;;0.65;0.65;;;;;;;10.12;86.92;99396.78;5107592;28;20046;-67
2023/01/05 10:33:15;;;;;;;17.00;0.85;;;;;;;10.12;87.15;99391.66;5095284;28;20506;-66
2023/01/05 10:36:08;;;;;;;;;;;;;;;10.13;87.23;99388.25;5095769;28;20510;-65
2023/01/05 10:38:53;;;;;;;0.20;0.20;;;;;;;10.16;86.88;99423.09;5095207;28;19927;-64
2023/01/05 10:41:31;;;;;;;0.30;0.30;;;;;;;10.17;86.83;99409.50;5095182;28;20048;-65
2023/01/05 10:44:22;;;;;;;0.30;0.30;;;;;;;10.17;86.75;99412.91;5109885;28;20040;-65
2023/01/05 10:46:52;;;;;;;0.35;0.35;;;;;;;10.20;86.91;99399.28;5099832;28;20040;-65
2023/01/05 10:49:26;;;;;;;0.30;0.30;;;;;;;10.20;86.73;99384.81;5094814;28;20044;-65
2023/01/05 10:51:59;;;;;;;0.30;0.30;;;;;;;10.24;86.55;99373.78;5095153;28;20498;-65
2023/01/05 10:54:36;;;;;;;0.40;0.40;;;;;;;10.28;86.85;99367.78;5095469;28;20068;-65
2023/01/05 10:57:41;;;;;;;0.60;0.60;;;;;;;10.31;86.65;99355.03;5094912;28;20135;-65
2023/01/05 11:00:13;;;;;;;0.30;0.30;;;;;;;10.37;86.73;99367.75;5090254;28;20135;-65
2023/01/05 11:02:49;;;;;;;0.38;0.38;;;;;;;10.42;86.42;99373.66;5094617;28;20058;-66
2023/01/05 11:05:26;;;;;;;0.30;0.30;;;;;;;10.44;86.33;99382.16;5095079;28;20486;-66
2023/01/05 11:07:59;;;;;;;0.30;0.30;;;;;;;10.47;85.92;99369.38;5105130;28;20515;-65
2023/01/05 11:10:31;;;;;;;0.40;0.40;;;;;;;10.51;86.00;99371.06;5094497;28;20517;-65
2023/01/05 11:13:06;;;;;;;0.30;0.30;;;;;;;10.52;85.65;99377.88;5094805;28;20047;-65
2023/01/05 11:15:42;;;;;;;0.30;0.30;;;;;;;10.54;85.42;99349.78;5094810;28;20048;-65
2023/01/05 11:18:26;;;;;;;0.60;0.45;;;;;;;10.60;85.11;99372.72;5094488;28;20040;-66
2023/01/05 11:21:13;;;;;;;0.40;0.40;;;;;;;10.63;84.86;99399.06;5094671;28;20470;-65
2023/01/05 11:23:45;;;;;;;0.38;0.38;;;;;;;10.66;84.63;99411.81;5094494;28;20047;-65
2023/01/05 11:26:25;;;;;;;0.80;0.80;;;;;;;10.67;84.75;99413.53;5094657;28;20043;-65
2023/01/05 11:29:01;;;;;;;;;;;;;;;10.68;84.71;99415.19;5094341;28;20055;-65
2023/01/05 11:31:36;;;;;;;0.40;0.40;;;;;;;10.69;84.49;99410.94;5094288;28;19926;-65
2023/01/05 11:34:17;;;;;;;0.30;0.30;;;;;;;10.70;83.95;99413.47;5094537;28;20058;-64
2023/01/05 11:36:53;;;;;;;0.43;0.43;;;;;;;10.70;83.90;99395.63;5094504;28;20569;-65
2023/01/05 11:39:29;;;;;;;2.05;1.20;;;;;;;10.74;83.40;99394.75;5094066;28;20055;-64
2023/01/05 11:42:11;;;;;;;0.20;0.20;;;;;;;10.76;83.11;99393.03;5094376;28;20054;-65
2023/01/05 11:44:44;;;;;;;0.30;0.30;;;;;;;10.78;82.77;99391.31;5094084;28;20494;-65
2023/01/05 11:47:22;;;;;;;0.32;0.32;;;;;;;10.82;82.88;99381.09;5093957;28;20056;-64
2023/01/05 11:50:01;;;;;;;0.40;0.40;;;;;;;10.84;82.47;99384.47;5094473;28;20451;-64
2023/01/05 11:52:39;;;;;;;0.30;0.30;;;;;;;10.82;82.26;99381.09;5094097;28;20075;-64
2023/01/05 11:55:30;;;;;;;0.38;0.38;;;;;;;10.85;82.05;99386.16;5093698;28;20055;-65
2023/01/05 11:58:16;;;;;;;0.47;0.47;;;;;;;10.85;81.99;99375.94;5092941;28;20143;-65
2023/01/05 12:01:07;;;;;;;0.30;0.30;;;;;;;10.84;82.05;99364.06;5094122;28;20051;-65
2023/01/05 12:04:00;;;;;;;0.20;0.20;;;;;;;10.82;82.01;99370.88;5092321;28;20083;-65
2023/01/05 12:06:51;;;;;;;0.35;0.35;;;;;;;10.85;81.78;99375.94;5093787;28;20044;-65
2023/01/05 12:09:26;;;;;;;0.40;0.40;;;;;;;11.09;81.77;99365.56;5093507;28;20442;-65
2023/01/05 12:12:24;;;;;;;0.82;0.65;;;;;;;11.32;81.52;99368.78;5112044;28;20071;-64
2023/01/05 12:15:12;;;;;;;0.20;0.20;;;;;;;11.80;81.25;99360.69;5114348;28;20378;-65
2023/01/05 12:17:52;;;;;;;0.30;0.30;;;;;;;12.18;80.53;99360.22;5113894;28;20054;-65
2023/01/05 12:20:43;;;;;;;2.08;1.38;;;;;;;12.74;78.86;99367.97;5093464;28;20046;-65
2023/01/05 12:23:42;;;;;;;0.20;0.20;;;;;;;13.54;77.46;99362.44;5093740;28;20036;-65
2023/01/05 12:26:19;;;;;;;0.30;0.30;;;;;;;13.80;75.70;99362.81;5092800;28;20048;-65
2023/01/05 12:29:12;;;;;;;0.30;0.30;;;;;;;14.16;74.47;99359.53;5093202;28;20052;-65
2023/01/05 12:32:23;;;;;;;0.20;0.20;;;;;;;14.49;72.18;99353.72;5093697;28;20040;-66
2023/01/05 12:35:41;;;;;;;0.47;0.47;;;;;;;14.77;70.49;99354.81;5093293;28;20058;-64
2023/01/05 12:38:43;;;;;;;0.30;0.30;;;;;;;15.01;68.94;99357.69;5093404;28;20052;-66